createdAt,value
2022-09-24T00:01:36.041Z,68151.97
2022-09-24T00:04:06.166Z,68159.88
2022-09-24T00:06:51.428Z,68164.44
2022-09-24T00:09:21.989Z,68161.41
2022-09-24T00:11:50.033Z,68158.38
2022-09-24T00:14:17.406Z,68158.19
2022-09-24T00:16:45.743Z,68159.31
2022-09-24T00:19:14.017Z,68161.03
2022-09-24T00:21:41.942Z,68156.69
2022-09-24T00:24:36.115Z,68159.72
2022-09-24T00:27:05.863Z,68157.25
2022-09-24T00:29:35.697Z,68145.94
2022-09-24T00:32:05.915Z,68147.63
2022-09-24T00:34:33.454Z,68151.19
2022-09-24T00:37:00.688Z,68144.59
2022-09-24T00:39:28.328Z,68147.25
2022-09-24T00:41:55.725Z,68158.94
2022-09-24T00:44:41.224Z,68158.94
2022-09-24T00:47:19.215Z,68152.16
2022-09-24T00:49:49.673Z,68163.28
2022-09-24T00:52:19.023Z,68150.66
2022-09-24T00:54:47.092Z,68159.13
2022-09-24T00:57:14.428Z,68152.53
2022-09-24T00:59:43.518Z,68162.16
2022-09-24T01:02:10.986Z,68147.84
2022-09-24T01:04:38.242Z,68143.66
2022-09-24T01:07:05.481Z,68139.69
2022-09-24T01:09:32.876Z,68138.19
2022-09-24T01:12:28.352Z,68133.28
2022-09-24T01:15:02.919Z,68145.75
2022-09-24T01:17:50.601Z,68155.00
2022-09-24T01:20:36.210Z,68156.31
2022-09-24T01:23:05.854Z,68144.44
2022-09-24T01:25:46.009Z,68145.19
2022-09-24T01:28:35.886Z,68156.69
2022-09-24T01:31:16.961Z,68158.56
2022-09-24T01:33:49.626Z,68153.84
2022-09-24T01:36:18.275Z,68165.56
2022-09-24T01:38:49.675Z,68165.56
2022-09-24T01:41:18.633Z,68164.78
2022-09-24T01:43:46.146Z,68178.19
2022-09-24T01:46:16.520Z,68168.19
2022-09-24T01:48:43.920Z,68160.09
2022-09-24T01:51:33.876Z,68171.97
2022-09-24T01:54:05.652Z,68181.22
2022-09-24T01:56:47.604Z,68175.38
2022-09-24T01:59:33.076Z,68175.19
2022-09-24T02:02:28.841Z,68165.75
2022-09-24T02:05:02.177Z,68174.25
2022-09-24T02:08:05.651Z,68176.50
2022-09-24T02:10:41.304Z,68184.25
2022-09-24T02:13:13.564Z,68178.03
2022-09-24T02:15:45.728Z,68177.63
2022-09-24T02:18:17.655Z,68178.75
2022-09-24T02:20:45.453Z,68171.97
2022-09-24T02:23:15.930Z,68171.97
2022-09-24T02:25:58.311Z,68171.22
2022-09-24T02:28:26.775Z,68154.06
2022-09-24T02:31:00.748Z,68151.97
2022-09-24T02:33:51.070Z,68150.47
2022-09-24T02:36:18.678Z,68153.66
2022-09-24T02:38:46.858Z,68151.97
2022-09-24T02:41:14.792Z,68143.28
2022-09-24T02:43:41.885Z,68139.69
2022-09-24T02:46:10.193Z,68145.38
2022-09-24T02:48:37.368Z,68149.88
2022-09-24T02:51:05.627Z,68130.84
2022-09-24T02:53:34.631Z,68140.25
2022-09-24T02:56:02.128Z,68147.25
2022-09-24T02:58:30.088Z,68142.72
2022-09-24T03:00:57.393Z,68140.47
2022-09-24T03:03:24.827Z,68149.16
2022-09-24T03:05:54.707Z,68154.22
2022-09-24T03:08:22.835Z,68141.78
2022-09-24T03:10:51.164Z,68143.47
2022-09-24T03:13:19.045Z,68153.66
2022-09-24T03:15:46.550Z,68157.06
2022-09-24T03:18:14.405Z,68158.19
2022-09-24T03:20:43.134Z,68149.69
2022-09-24T03:23:10.440Z,68161.41
2022-09-24T03:25:37.512Z,68164.78
2022-09-24T03:28:04.815Z,68153.66
2022-09-24T03:30:50.590Z,68150.25
2022-09-24T03:33:17.696Z,68149.50
2022-09-24T03:35:44.813Z,68149.31
2022-09-24T03:38:11.913Z,68152.16
2022-09-24T03:40:39.208Z,68139.69
2022-09-24T03:43:06.364Z,68137.81
2022-09-24T03:45:33.421Z,68143.09
2022-09-24T03:48:00.652Z,68136.88
2022-09-24T03:50:27.736Z,68130.63
2022-09-24T03:52:55.132Z,68136.69
2022-09-24T03:55:22.285Z,68133.47
2022-09-24T03:57:49.390Z,68133.84
2022-09-24T04:00:16.952Z,68126.69
2022-09-24T04:02:45.032Z,68122.16
2022-09-24T04:05:12.320Z,68115.72
2022-09-24T04:07:39.878Z,68120.84
2022-09-24T04:10:08.925Z,68111.97
2022-09-24T04:12:36.203Z,68115.53
2022-09-24T04:15:04.086Z,68115.16
2022-09-24T04:17:31.511Z,68107.41
2022-09-24T04:19:58.777Z,68103.47
2022-09-24T04:22:26.246Z,68112.91
2022-09-24T04:24:53.941Z,68115.53
2022-09-24T04:27:21.829Z,68104.97
2022-09-24T04:29:48.891Z,68099.31
2022-09-24T04:32:16.049Z,68086.50
2022-09-24T04:34:43.114Z,68083.88
2022-09-24T04:37:10.271Z,68084.78
2022-09-24T04:39:37.510Z,68081.00
2022-09-24T04:42:04.818Z,68080.63
2022-09-24T04:44:32.064Z,68075.19
2022-09-24T04:47:03.003Z,68067.81
2022-09-24T04:49:30.338Z,68070.47
2022-09-24T04:51:58.352Z,68074.41
2022-09-24T04:54:25.656Z,68069.31
2022-09-24T04:56:52.940Z,68055.00
2022-09-24T04:59:20.072Z,68046.31
2022-09-24T05:01:47.371Z,68044.06
2022-09-24T05:04:14.588Z,68046.50
2022-09-24T05:06:41.810Z,68044.06
2022-09-24T05:09:12.638Z,68046.13
2022-09-24T05:11:40.011Z,68037.81
2022-09-24T05:14:08.501Z,68033.31
2022-09-24T05:16:35.810Z,68035.00
2022-09-24T05:19:04.936Z,68034.63
2022-09-24T05:21:32.302Z,68038.56
2022-09-24T05:23:59.505Z,68037.81
2022-09-24T05:26:44.870Z,68051.78
2022-09-24T05:29:12.164Z,68048.75
2022-09-24T05:31:39.321Z,68048.38
2022-09-24T05:34:06.760Z,68052.16
2022-09-24T05:36:33.999Z,68058.19
2022-09-24T05:39:01.427Z,68055.94
2022-09-24T05:41:28.561Z,68054.81
2022-09-24T05:43:59.626Z,68054.63
2022-09-24T05:46:27.053Z,68043.50
2022-09-24T05:48:56.006Z,68041.22
2022-09-24T05:51:23.111Z,68050.66
2022-09-24T05:53:50.507Z,68042.16
2022-09-24T05:56:18.538Z,68043.50
2022-09-24T05:58:48.379Z,68039.16
2022-09-24T06:01:15.392Z,68035.94
2022-09-24T06:03:42.881Z,68034.81
2022-09-24T06:06:10.341Z,68037.81
2022-09-24T06:08:37.685Z,68040.09
2022-09-24T06:11:08.570Z,68045.19
2022-09-24T06:13:35.973Z,68047.25
2022-09-24T06:16:08.914Z,68056.31
2022-09-24T06:18:40.011Z,68070.47
2022-09-24T06:21:11.525Z,68064.78
2022-09-24T06:23:39.168Z,68067.06
2022-09-24T06:26:07.876Z,68071.56
2022-09-24T06:28:35.576Z,68067.81
2022-09-24T06:31:03.648Z,68075.19
2022-09-24T06:33:31.466Z,68084.03
2022-09-24T06:36:02.260Z,68084.78
2022-09-24T06:38:29.795Z,68103.06
2022-09-24T06:41:01.797Z,68103.84
2022-09-24T06:43:29.661Z,68110.44
2022-09-24T06:45:58.029Z,68114.41
2022-09-24T06:48:26.493Z,68134.41
2022-09-24T06:50:54.748Z,68145.38
2022-09-24T06:53:22.032Z,68148.78
2022-09-24T06:55:49.415Z,68138.00
2022-09-24T06:58:22.182Z,68130.09
2022-09-24T07:01:02.284Z,68122.34
2022-09-24T07:03:31.819Z,68120.84
2022-09-24T07:06:04.902Z,68126.69
2022-09-24T07:08:32.674Z,68150.25
2022-09-24T07:11:00.731Z,68166.69
2022-09-24T07:13:28.000Z,68205.38
2022-09-24T07:15:55.256Z,68232.56
2022-09-24T07:18:23.096Z,68257.50
2022-09-24T07:20:56.810Z,68267.69
2022-09-24T07:23:24.532Z,68271.09
2022-09-24T07:25:56.244Z,68263.16
2022-09-24T07:28:23.535Z,68272.78
2022-09-24T07:30:57.878Z,68275.81
2022-09-24T07:33:25.161Z,68300.53
2022-09-24T07:35:52.357Z,68326.44
2022-09-24T07:38:19.790Z,68340.44
2022-09-24T07:40:47.170Z,68363.88
2022-09-24T07:43:14.776Z,68387.31
2022-09-24T07:45:42.754Z,68425.31
2022-09-24T07:48:11.222Z,68443.44
2022-09-24T07:50:40.524Z,68423.41
2022-09-24T07:53:11.872Z,68421.13
2022-09-24T07:55:41.056Z,68499.84
2022-09-24T07:58:12.919Z,68609.03
2022-09-24T08:00:40.495Z,68691.59
2022-09-24T08:03:07.820Z,68718.88
2022-09-24T08:05:34.913Z,68690.47
2022-09-24T08:08:02.285Z,68666.59
2022-09-24T08:10:29.585Z,68652.38
2022-09-24T08:12:59.345Z,68635.91
2022-09-24T08:15:26.729Z,68631.72
2022-09-24T08:17:53.829Z,68650.50
2022-09-24T08:20:23.444Z,68643.25
2022-09-24T08:22:50.643Z,68639.50
2022-09-24T08:25:17.791Z,68620.56
2022-09-24T08:27:44.945Z,68576.22
2022-09-24T08:30:12.629Z,68585.94
2022-09-24T08:32:39.928Z,68581.38
2022-09-24T08:35:08.275Z,68594.84
2022-09-24T08:37:37.167Z,68626.25
2022-09-24T08:40:04.670Z,68669.44
2022-09-24T08:42:55.720Z,68708.66
2022-09-24T08:45:41.221Z,68730.06
2022-09-24T08:48:19.380Z,68738.75
2022-09-24T08:50:53.409Z,68764.00
2022-09-24T08:53:28.149Z,68775.50
2022-09-24T08:56:01.962Z,68812.13
2022-09-24T08:58:44.307Z,68839.44
2022-09-24T09:01:11.964Z,68865.06
2022-09-24T09:03:39.076Z,68892.91
2022-09-24T09:06:41.817Z,68880.97
2022-09-24T09:09:17.562Z,68858.97
2022-09-24T09:11:49.120Z,68839.06
2022-09-24T09:14:31.338Z,68826.94
2022-09-24T09:17:07.116Z,68835.66
2022-09-24T09:19:37.084Z,68839.44
2022-09-24T09:22:16.541Z,68828.53
2022-09-24T09:24:50.328Z,68867.13
2022-09-24T09:27:19.632Z,68882.84
2022-09-24T09:29:51.020Z,68866.06
2022-09-24T09:32:49.992Z,68871.88
2022-09-24T09:35:33.250Z,68876.41
2022-09-24T09:38:19.635Z,68853.00
2022-09-24T09:41:11.585Z,68859.34
2022-09-24T09:43:41.870Z,68859.34
2022-09-24T09:46:18.961Z,68859.53
2022-09-24T09:48:52.259Z,68857.81
2022-09-24T09:51:23.227Z,68854.59
2022-09-24T09:54:02.376Z,68855.19
2022-09-24T09:56:37.034Z,68858.78
2022-09-24T09:59:18.804Z,68882.09
2022-09-24T10:01:49.576Z,68887.41
2022-09-24T10:04:43.530Z,68903.91
2022-09-24T10:07:17.582Z,68909.41
2022-09-24T10:09:46.851Z,68926.88
2022-09-24T10:12:22.463Z,68963.88
2022-09-24T10:15:05.378Z,69018.16
2022-09-24T10:17:58.170Z,69070.78
2022-09-24T10:20:33.801Z,69097.94
2022-09-24T10:23:07.214Z,69107.63
2022-09-24T10:25:37.842Z,69115.22
2022-09-24T10:28:42.653Z,69115.59
2022-09-24T10:31:30.449Z,69110.47
2022-09-24T10:33:59.855Z,69119.22
2022-09-24T10:36:30.039Z,69103.50
2022-09-24T10:39:04.765Z,69102.66
2022-09-24T10:41:32.478Z,69102.50
2022-09-24T10:44:11.800Z,69091.28
2022-09-24T10:47:00.796Z,69093.38
2022-09-24T10:49:55.230Z,69103.06
2022-09-24T10:52:36.044Z,69077.28
2022-09-24T10:55:25.013Z,69100.97
2022-09-24T10:57:58.557Z,69126.84
2022-09-24T11:00:49.515Z,69094.13
2022-09-24T11:03:37.154Z,69100.22
2022-09-24T11:06:18.940Z,69103.06
2022-09-24T11:09:17.423Z,69112.19
2022-09-24T11:11:50.572Z,69116.00
2022-09-24T11:14:23.557Z,69108.06
2022-09-24T11:17:00.889Z,69158.53
2022-09-24T11:19:31.865Z,69176.03
2022-09-24T11:22:15.737Z,69188.59
2022-09-24T11:25:09.102Z,69197.88
2022-09-24T11:27:50.485Z,69160.06
2022-09-24T11:30:32.080Z,69150.34
2022-09-24T11:33:47.608Z,69135.78
2022-09-24T11:36:33.453Z,69108.78
2022-09-24T11:39:22.407Z,69117.31
2022-09-24T11:42:08.195Z,69105.34
2022-09-24T11:45:05.759Z,69127.59
2022-09-24T11:47:33.985Z,69136.28
2022-09-24T11:50:11.250Z,69135.91
2022-09-24T11:52:45.568Z,69153.22
2022-09-24T11:55:18.778Z,69144.28
2022-09-24T11:57:57.064Z,69170.91
2022-09-24T12:00:32.486Z,69133.44
2022-09-24T12:03:11.094Z,69122.44
2022-09-24T12:05:46.727Z,69132.13
2022-09-24T12:08:27.751Z,69139.53
2022-09-24T12:11:06.797Z,69129.28
2022-09-24T12:13:42.725Z,69144.84
2022-09-24T12:16:17.006Z,69138.75
2022-09-24T12:18:50.736Z,69144.66
2022-09-24T12:21:33.218Z,69146.38
2022-09-24T12:24:07.355Z,69138.97
2022-09-24T12:26:37.746Z,69129.47
2022-09-24T12:29:51.199Z,69117.19
2022-09-24T12:32:54.322Z,69134.41
2022-09-24T12:35:49.808Z,69118.88
2022-09-24T12:38:29.794Z,69143.53
2022-09-24T12:41:25.234Z,69148.66
2022-09-24T12:44:22.997Z,69137.09
2022-09-24T12:46:59.410Z,69164.25
2022-09-24T12:49:27.010Z,69181.72
2022-09-24T12:51:56.645Z,69170.34
2022-09-24T12:54:26.721Z,69163.50
2022-09-24T12:57:25.924Z,69162.94
2022-09-24T12:59:56.956Z,69179.47
2022-09-24T13:02:43.809Z,69174.72
2022-09-24T13:05:28.729Z,69166.34
2022-09-24T13:08:25.305Z,69172.44
2022-09-24T13:10:57.015Z,69160.63
2022-09-24T13:13:27.362Z,69141.41
2022-09-24T13:16:04.289Z,69133.84
2022-09-24T13:18:34.749Z,69121.69
2022-09-24T13:21:07.590Z,69131.72
2022-09-24T13:23:37.861Z,69174.91
2022-09-24T13:26:13.534Z,69189.16
2022-09-24T13:28:48.320Z,69192.97
2022-09-24T13:31:21.820Z,69188.03
2022-09-24T13:33:55.075Z,69169.63
2022-09-24T13:36:37.141Z,69182.47
2022-09-24T13:39:24.567Z,69207.97
2022-09-24T13:42:10.542Z,69222.81
2022-09-24T13:44:49.124Z,69178.72
2022-09-24T13:47:32.404Z,69207.97
2022-09-24T13:50:14.389Z,69217.81
2022-09-24T13:52:58.741Z,69185.00
2022-09-24T13:55:40.083Z,69197.72
2022-09-24T13:58:30.669Z,69195.81
2022-09-24T14:01:00.305Z,69183.31
2022-09-24T14:03:37.034Z,69182.31
2022-09-24T14:06:13.127Z,69177.94
2022-09-24T14:08:44.536Z,69177.59
2022-09-24T14:11:15.977Z,69164.81
2022-09-24T14:13:46.053Z,69155.66
2022-09-24T14:16:23.023Z,69159.88
2022-09-24T14:19:03.225Z,69151.09
2022-09-24T14:21:45.574Z,69163.66
2022-09-24T14:24:25.484Z,69172.63
2022-09-24T14:26:58.470Z,69178.31
2022-09-24T14:30:02.437Z,69184.59
2022-09-24T14:32:36.721Z,69194.28
2022-09-24T14:35:07.983Z,69201.69
2022-09-24T14:37:45.943Z,69200.56
2022-09-24T14:40:19.327Z,69211.97
2022-09-24T14:42:53.708Z,69220.34
2022-09-24T14:45:29.636Z,69196.72
2022-09-24T14:48:05.211Z,69195.41
2022-09-24T14:50:40.839Z,69186.31
2022-09-24T14:53:33.013Z,69177.75
2022-09-24T14:56:00.827Z,69173.75
2022-09-24T14:58:27.957Z,69178.16
2022-09-24T15:01:05.838Z,69181.72
2022-09-24T15:03:50.190Z,69153.78
2022-09-24T15:06:21.771Z,69165.78
2022-09-24T15:08:57.433Z,69161.59
2022-09-24T15:11:27.891Z,69140.28
2022-09-24T15:14:08.675Z,69143.69
2022-09-24T15:16:37.064Z,69142.22
2022-09-24T15:19:07.548Z,69113.75
2022-09-24T15:21:35.151Z,69130.97
2022-09-24T15:24:02.854Z,69120.34
2022-09-24T15:26:33.283Z,69097.38
2022-09-24T15:29:02.074Z,69071.75
2022-09-24T15:31:30.117Z,69044.78
2022-09-24T15:33:57.395Z,69014.94
2022-09-24T15:36:25.016Z,69006.59
2022-09-24T15:38:58.159Z,68985.88
2022-09-24T15:41:25.421Z,68974.50
2022-09-24T15:43:56.614Z,68960.28
2022-09-24T15:46:25.574Z,68953.84
2022-09-24T15:48:53.203Z,68954.41
2022-09-24T15:51:22.423Z,68950.41
2022-09-24T15:53:50.682Z,68964.88
2022-09-24T15:56:18.096Z,68966.38
2022-09-24T15:58:45.312Z,68957.47
2022-09-24T16:01:18.998Z,68943.03
2022-09-24T16:03:46.287Z,68935.22
2022-09-24T16:06:14.213Z,68931.81
2022-09-24T16:08:42.596Z,68927.66
2022-09-24T16:11:09.877Z,68925.72
2022-09-24T16:13:37.883Z,68909.41
2022-09-24T16:16:10.164Z,68896.16
2022-09-24T16:18:39.812Z,68890.06
2022-09-24T16:21:09.962Z,68894.44
2022-09-24T16:23:37.508Z,68872.63
2022-09-24T16:26:04.916Z,68858.03
2022-09-24T16:28:32.336Z,68837.91
2022-09-24T16:30:59.543Z,68834.13
2022-09-24T16:33:26.838Z,68829.59
2022-09-24T16:35:54.019Z,68828.25
2022-09-24T16:38:23.028Z,68846.84
2022-09-24T16:40:59.822Z,68862.59
2022-09-24T16:43:27.394Z,68854.03
2022-09-24T16:46:00.365Z,68852.72
2022-09-24T16:48:28.245Z,68856.34
2022-09-24T16:51:03.461Z,68844.72
2022-09-24T16:53:31.170Z,68844.56
2022-09-24T16:56:05.632Z,68832.22
2022-09-24T16:58:33.715Z,68833.75
2022-09-24T17:01:07.837Z,68833.00
2022-09-24T17:03:35.339Z,68830.91
2022-09-24T17:06:03.849Z,68841.53
2022-09-24T17:08:51.462Z,68837.91
2022-09-24T17:11:18.966Z,68828.28
2022-09-24T17:13:47.566Z,68829.75
2022-09-24T17:16:16.095Z,68824.84
2022-09-24T17:18:46.051Z,68809.88
2022-09-24T17:21:15.108Z,68795.25
2022-09-24T17:23:42.540Z,68791.84
2022-09-24T17:26:17.932Z,68782.38
2022-09-24T17:28:46.824Z,68775.75
2022-09-24T17:31:16.795Z,68774.03
2022-09-24T17:33:44.979Z,68775.75
2022-09-24T17:36:15.330Z,68763.22
2022-09-24T17:38:43.158Z,68763.22
2022-09-24T17:41:13.087Z,68753.75
2022-09-24T17:43:41.634Z,68748.81
2022-09-24T17:46:14.976Z,68731.97
2022-09-24T17:48:45.045Z,68722.13
2022-09-24T17:51:20.850Z,68717.00
2022-09-24T17:53:48.376Z,68703.91
2022-09-24T17:56:16.872Z,68680.75
2022-09-24T17:58:49.586Z,68702.41
2022-09-24T18:01:21.231Z,68705.25
2022-09-24T18:03:53.203Z,68713.19
2022-09-24T18:06:21.067Z,68706.38
2022-09-24T18:08:48.236Z,68701.81
2022-09-24T18:11:17.431Z,68686.13
2022-09-24T18:13:46.057Z,68677.59
2022-09-24T18:16:17.521Z,68667.00
2022-09-24T18:18:45.318Z,68653.69
2022-09-24T18:21:13.639Z,68664.88
2022-09-24T18:23:42.037Z,68657.69
2022-09-24T18:26:18.148Z,68642.56
2022-09-24T18:28:49.866Z,68642.16
2022-09-24T18:31:23.054Z,68648.78
2022-09-24T18:33:52.377Z,68646.13
2022-09-24T18:36:23.079Z,68633.63
2022-09-24T18:38:50.375Z,68625.69
2022-09-24T18:41:23.974Z,68620.38
2022-09-24T18:43:52.399Z,68610.34
2022-09-24T18:46:21.162Z,68616.78
2022-09-24T18:48:50.924Z,68609.78
2022-09-24T18:51:29.552Z,68595.59
2022-09-24T18:53:59.757Z,68597.09
2022-09-24T18:56:27.683Z,68587.06
2022-09-24T18:58:55.792Z,68600.31
2022-09-24T19:01:23.558Z,68589.16
2022-09-24T19:03:51.107Z,68588.00
2022-09-24T19:06:18.327Z,68583.84
2022-09-24T19:08:46.141Z,68591.22
2022-09-24T19:11:17.033Z,68595.00
2022-09-24T19:13:49.586Z,68606.75
2022-09-24T19:16:18.297Z,68608.47
2022-09-24T19:18:46.682Z,68590.47
2022-09-24T19:21:15.983Z,68586.69
2022-09-24T19:23:46.296Z,68591.97
2022-09-24T19:26:18.632Z,68588.41
2022-09-24T19:28:47.684Z,68593.88
2022-09-24T19:31:20.332Z,68586.50
2022-09-24T19:33:50.238Z,68579.13
2022-09-24T19:36:17.969Z,68575.13
2022-09-24T19:38:45.480Z,68564.38
2022-09-24T19:41:21.302Z,68564.38
2022-09-24T19:43:52.139Z,68568.50
2022-09-24T19:46:23.799Z,68576.47
2022-09-24T19:48:54.039Z,68575.53
2022-09-24T19:51:29.518Z,68575.91
2022-09-24T19:53:58.972Z,68553.19
2022-09-24T19:56:26.747Z,68549.59
2022-09-24T19:58:56.362Z,68543.75
2022-09-24T20:01:28.224Z,68535.22
2022-09-24T20:03:57.131Z,68525.00
2022-09-24T20:06:31.258Z,68526.72
2022-09-24T20:08:59.474Z,68529.34
2022-09-24T20:11:34.852Z,68535.03
2022-09-24T20:14:05.905Z,68527.44
2022-09-24T20:16:33.660Z,68525.19
2022-09-24T20:19:02.581Z,68517.81
2022-09-24T20:21:34.492Z,68512.69
2022-09-24T20:24:04.730Z,68503.41
2022-09-24T20:26:51.511Z,68493.00
2022-09-24T20:29:20.049Z,68492.63
2022-09-24T20:31:53.297Z,68485.81
2022-09-24T20:34:33.862Z,68494.31
2022-09-24T20:37:02.613Z,68490.91
2022-09-24T20:39:30.931Z,68488.47
2022-09-24T20:42:05.949Z,68489.03
2022-09-24T20:44:34.053Z,68494.31
2022-09-24T20:47:01.135Z,68487.88
2022-09-24T20:49:29.833Z,68469.94
2022-09-24T20:51:58.104Z,68475.59
2022-09-24T20:54:27.001Z,68478.06
2022-09-24T20:56:54.756Z,68478.44
2022-09-24T20:59:23.588Z,68472.78
2022-09-24T21:01:51.032Z,68477.88
2022-09-24T21:04:20.183Z,68469.16
2022-09-24T21:06:48.434Z,68467.28
2022-09-24T21:09:17.419Z,68456.13
2022-09-24T21:11:44.891Z,68451.22
2022-09-24T21:14:12.393Z,68451.38
2022-09-24T21:16:39.531Z,68458.94
2022-09-24T21:19:07.979Z,68455.19
2022-09-24T21:21:39.039Z,68460.47
2022-09-24T21:24:09.539Z,68450.28
2022-09-24T21:26:38.421Z,68459.16
2022-09-24T21:29:09.652Z,68451.00
2022-09-24T21:31:38.707Z,68432.88
2022-09-24T21:34:07.652Z,68425.31
2022-09-24T21:36:44.533Z,68421.72
2022-09-24T21:39:23.355Z,68420.41
2022-09-24T21:41:53.116Z,68435.50
2022-09-24T21:44:21.481Z,68446.84
2022-09-24T21:46:51.047Z,68444.41
2022-09-24T21:49:19.459Z,68447.63
2022-09-24T21:51:47.089Z,68435.50
2022-09-24T21:54:17.647Z,68435.50
2022-09-24T22:01:05.083Z,68427.56
2022-09-24T22:03:32.841Z,68416.03
2022-09-24T22:06:03.382Z,68408.84
2022-09-24T22:08:32.043Z,68406.41
2022-09-24T22:11:10.563Z,68416.22
2022-09-24T22:13:38.951Z,68402.63
2022-09-24T22:16:08.411Z,68406.97
2022-09-24T22:18:37.113Z,68405.81
2022-09-24T22:21:10.377Z,68400.72
2022-09-24T22:23:37.901Z,68401.84
2022-09-24T22:26:06.515Z,68390.72
2022-09-24T22:28:34.585Z,68374.25
2022-09-24T22:31:06.035Z,68375.59
2022-09-24T22:33:52.405Z,68360.66
2022-09-24T22:36:20.209Z,68351.00
2022-09-24T22:38:49.445Z,68348.19
2022-09-24T22:41:16.861Z,68345.91
2022-09-24T22:43:44.568Z,68348.19
2022-09-24T22:46:13.400Z,68349.88
2022-09-24T22:48:40.667Z,68356.69
2022-09-24T22:51:09.324Z,68357.25
2022-09-24T22:53:38.660Z,68371.22
2022-09-24T22:56:14.368Z,68371.44
2022-09-24T22:58:44.815Z,68373.50
2022-09-24T23:01:17.057Z,68370.66
2022-09-24T23:03:44.953Z,68361.97
2022-09-24T23:06:12.425Z,68353.84
2022-09-24T23:08:41.217Z,68346.09
2022-09-24T23:11:09.501Z,68342.53
2022-09-24T23:13:38.236Z,68339.31
2022-09-24T23:16:13.103Z,68345.16
2022-09-24T23:18:42.270Z,68346.47
2022-09-24T23:21:12.364Z,68355.34
2022-09-24T23:23:40.036Z,68353.47
2022-09-24T23:26:16.243Z,68348.19
2022-09-24T23:28:46.119Z,68342.69
2022-09-24T23:31:14.859Z,68342.91
2022-09-24T23:33:42.428Z,68336.28
2022-09-24T23:36:11.930Z,68335.53
2022-09-24T23:38:39.569Z,68329.69
2022-09-24T23:41:08.232Z,68320.56
2022-09-24T23:43:36.200Z,68326.66
2022-09-24T23:46:03.454Z,68326.66
2022-09-24T23:48:31.598Z,68323.59
2022-09-24T23:50:58.803Z,68322.28
2022-09-24T23:53:26.641Z,68320.41
2022-09-24T23:55:55.351Z,68328.69
2022-09-24T23:58:23.923Z,68320.97
